Time;durP1;ratioP1;P1;durP2;ratioP2;P2;SDS_P1;SDS_P2;PMS_P1;PMS_P2;Temp;Humidity;BMP_temperature;BMP_pressure;BME280_temperature;BME280_humidity;BME280_pressure;Samples;Min_cycle;Max_cycle;Signal;HPM_P1;HPM_P2
2023/01/04 00:00:33;;;;;;;87.10;38.72;;;;;;;9.78;91.45;102732.88;4973218;28;20046;-79
2023/01/04 00:03:02;;;;;;;87.53;40.33;;;;;;;9.76;90.98;102725.03;4969835;28;20058;-78
2023/01/04 00:05:29;;;;;;;85.38;38.13;;;;;;;9.36;91.33;102668.72;4977437;28;20046;-79
2023/01/04 00:07:57;;;;;;;92.43;38.40;;;;;;;9.19;92.46;102640.41;4969625;28;20136;-76
2023/01/04 00:10:24;;;;;;;85.43;39.00;;;;;;;9.71;91.79;102711.16;4974553;28;20416;-77
2023/01/04 00:12:52;;;;;;;85.70;37.83;;;;;;;9.73;91.23;102713.69;4970908;28;20531;-78
2023/01/04 00:15:19;;;;;;;92.28;37.22;;;;;;;9.76;91.43;102719.72;4973543;28;20052;-78
2023/01/04 00:17:48;;;;;;;76.47;36.42;;;;;;;9.70;91.43;102725.31;4972950;28;20332;-77
2023/01/04 00:20:16;;;;;;;81.30;37.03;;;;;;;9.60;91.69;102711.69;4974545;28;20405;-77
2023/01/04 00:22:43;;;;;;;71.38;31.70;;;;;;;9.76;91.23;102729.47;4968932;28;20293;-77
2023/01/04 00:25:09;;;;;;;72.43;34.92;;;;;;;9.74;91.51;102726.03;4975987;28;20190;-78
2023/01/04 00:27:36;;;;;;;73.70;33.15;;;;;;;9.37;91.56;102664.28;4972077;28;20061;-77
2023/01/04 00:30:07;;;;;;;67.03;32.65;;;;;;;9.76;91.28;102718.88;4977554;28;20427;-77
2023/01/04 00:32:36;;;;;;;74.80;33.28;;;;;;;9.82;90.52;102729.16;4988706;28;20048;-78
2023/01/04 00:35:09;;;;;;;64.82;31.83;;;;;;;9.27;90.63;102625.91;4991630;28;20064;-77
2023/01/04 00:38:00;;;;;;;74.10;32.33;;;;;;;9.88;90.60;102727.97;4965828;28;20058;-77
2023/01/04 00:40:27;;;;;;;65.82;30.20;;;;;;;9.77;89.76;102715.25;4952057;28;20062;-78
2023/01/04 00:42:57;;;;;;;67.82;33.22;;;;;;;9.66;90.33;102697.28;4966724;28;20054;-78
2023/01/04 00:45:23;;;;;;;71.78;31.48;;;;;;;9.77;90.27;102713.47;4953810;28;20412;-76
2023/01/04 00:47:51;;;;;;;57.55;28.25;;;;;;;9.78;89.95;102722.28;4955524;28;20078;-77
2023/01/04 00:50:18;;;;;;;57.38;29.17;;;;;;;9.52;89.88;102684.72;4951911;28;20072;-76
2023/01/04 00:52:49;;;;;;;49.20;27.30;;;;;;;9.83;89.52;102730.88;4952306;28;20272;-77
2023/01/04 00:55:15;;;;;;;55.50;26.58;;;;;;;9.71;88.99;102710.25;4952162;28;20046;-78
2023/01/04 00:57:44;;;;;;;47.95;25.65;;;;;;;9.00;89.14;102591.94;4964322;28;20049;-78
2023/01/04 01:00:12;;;;;;;47.40;24.42;;;;;;;9.79;88.92;102713.41;4976441;28;20081;-77
2023/01/04 01:02:39;;;;;;;41.50;23.88;;;;;;;9.76;88.15;102718.88;4976158;28;20062;-77
2023/01/04 01:05:07;;;;;;;41.75;21.05;;;;;;;9.74;88.82;102715.44;4975173;28;20066;-78
2023/01/04 01:07:47;;;;;;;41.40;22.42;;;;;;;9.76;87.89;102718.88;5091633;27;20494;-77
2023/01/04 01:10:14;;;;;;;42.35;23.90;;;;;;;9.74;88.34;102720.75;5059048;28;20292;-77
2023/01/04 01:12:42;;;;;;;39.22;22.98;;;;;;;9.74;88.43;102720.75;5048240;28;20044;-79
2023/01/04 01:15:17;;;;;;;39.42;21.90;;;;;;;9.59;88.24;102709.13;5053738;28;20067;-77
2023/01/04 01:17:44;;;;;;;43.13;23.70;;;;;;;9.68;88.47;102721.03;5053302;28;20061;-79
2023/01/04 01:20:10;;;;;;;39.03;23.40;;;;;;;9.56;88.56;102720.75;5073252;28;20041;-78
2023/01/04 01:22:37;;;;;;;42.17;23.60;;;;;;;9.57;88.63;102725.09;5054248;28;20113;-78
2023/01/04 01:25:06;;;;;;;38.85;21.38;;;;;;;9.70;88.25;102737.75;5050515;28;20040;-78
2023/01/04 01:27:33;;;;;;;36.20;21.45;;;;;;;9.32;87.94;102677.78;5049884;28;20053;-78
2023/01/04 01:30:00;;;;;;;37.80;21.90;;;;;;;9.07;87.99;102632.25;5050803;28;20139;-78
2023/01/04 01:32:27;;;;;;;39.05;23.38;;;;;;;9.59;87.62;102717.94;5071918;28;20558;-76
2023/01/04 01:34:54;;;;;;;36.75;22.48;;;;;;;9.16;87.36;102651.19;5048491;28;20129;-77
2023/01/04 01:37:21;;;;;;;40.20;22.30;;;;;;;9.68;87.40;102744.91;5052145;28;20052;-76
2023/01/04 01:39:48;;;;;;;40.25;21.13;;;;;;;9.61;87.59;102737.28;5014233;28;20048;-76
2023/01/04 01:42:21;;;;;;;35.55;22.05;;;;;;;9.67;87.97;102735.25;5032697;28;20483;-77
2023/01/04 01:44:58;;;;;;;40.65;21.95;;;;;;;9.67;88.16;102741.41;5048152;28;20406;-76
2023/01/04 01:47:35;;;;;;;33.97;21.60;;;;;;;9.53;87.57;102728.84;5045492;28;20103;-77
2023/01/04 01:50:04;;;;;;;39.80;23.60;;;;;;;9.59;87.26;102744.44;5030936;28;20529;-78
2023/01/04 01:52:37;;;;;;;37.90;21.50;;;;;;;9.33;87.98;102700.69;5047753;28;20676;-76
2023/01/04 01:55:09;;;;;;;37.17;22.08;;;;;;;9.49;87.88;102735.25;5030464;28;20509;-77
2023/01/04 01:57:37;;;;;;;44.25;23.33;;;;;;;9.50;88.49;102746.72;5034322;28;20418;-77
2023/01/04 02:00:13;;;;;;;44.15;23.90;;;;;;;9.37;88.43;102719.97;5050044;28;20052;-77
2023/01/04 02:02:57;;;;;;;43.85;24.85;;;;;;;9.48;88.12;102730.00;5050036;28;20493;-77
2023/01/04 02:05:24;;;;;;;40.38;22.50;;;;;;;8.88;87.85;102634.94;5048901;28;20052;-77
2023/01/04 02:07:56;;;;;;;42.78;25.08;;;;;;;9.47;87.80;102736.28;5068945;28;20141;-77
2023/01/04 02:10:23;;;;;;;43.22;22.90;;;;;;;9.42;88.12;102715.28;5049098;28;20044;-77
2023/01/04 02:12:53;;;;;;;42.78;24.58;;;;;;;9.24;88.07;102685.25;5067188;28;20175;-78
2023/01/04 02:15:30;;;;;;;41.58;23.63;;;;;;;9.54;87.97;102740.28;5051095;28;20450;-78
2023/01/04 02:18:27;;;;;;;46.45;26.17;;;;;;;9.40;88.27;102717.16;5042983;28;20048;-77
2023/01/04 02:21:05;;;;;;;53.38;25.90;;;;;;;9.38;88.45;102708.41;5037072;28;20485;-78
2023/01/04 02:24:17;;;;;;;37.53;21.80;;;;;;;9.38;88.13;102700.47;5035316;28;20051;-76
2023/01/04 02:27:22;;;;;;;42.00;24.40;;;;;;;9.57;88.37;102730.41;4970803;28;20046;-77
2023/01/04 02:30:16;;;;;;;47.85;25.70;;;;;;;8.13;88.02;102483.25;4985918;28;20076;-76
2023/01/04 02:33:06;;;;;;;41.78;24.50;;;;;;;9.65;88.46;102734.47;5031516;28;20581;-77
2023/01/04 02:35:51;;;;;;;43.47;24.63;;;;;;;9.65;88.47;102735.31;5034919;28;20044;-78
2023/01/04 02:38:37;;;;;;;46.30;25.40;;;;;;;9.56;88.20;102722.53;5012167;28;20045;-78
2023/01/04 02:41:22;;;;;;;49.70;27.85;;;;;;;9.71;88.15;102737.66;5032274;28;20045;-76
2023/01/04 02:50:57;;;;;;;54.63;30.10;;;;;;;9.72;88.96;102727.91;4968163;28;20045;-77
2023/01/04 02:53:38;;;;;;;59.47;29.60;;;;;;;9.70;88.67;102705.91;5033026;28;20560;-77
2023/01/04 02:56:40;;;;;;;56.78;30.75;;;;;;;9.77;88.96;102708.16;5027488;28;20466;-77
2023/01/04 02:59:47;;;;;;;55.97;32.28;;;;;;;9.86;89.19;102720.09;5029818;28;20051;-78
2023/01/04 03:06:14;;;;;;;59.75;32.95;;;;;;;9.91;89.04;102711.91;5035994;28;20497;-75
2023/01/04 03:09:12;;;;;;;65.03;33.28;;;;;;;9.60;88.70;102666.59;4987912;28;20046;-77
2023/01/04 03:14:49;;;;;;;71.88;34.72;;;;;;;10.00;88.80;102727.31;5012948;28;20088;-77
2023/01/04 03:17:22;;;;;;;77.78;36.13;;;;;;;9.80;89.24;102693.88;5011186;28;20053;-76
2023/01/04 03:19:54;;;;;;;68.47;35.13;;;;;;;10.00;89.13;102733.50;5010499;28;20795;-76
2023/01/04 03:37:15;;;;;;;83.10;37.58;;;;;;;10.09;89.62;102720.69;5008590;28;20465;-78
2023/01/04 03:49:00;;;;;;;92.25;41.30;;;;;;;10.13;89.69;102720.44;5011680;28;20590;-77
2023/01/04 03:51:34;;;;;;;85.75;39.38;;;;;;;9.89;89.63;102677.47;5010916;28;20180;-78
2023/01/04 03:54:28;;;;;;;97.20;41.63;;;;;;;10.19;89.72;102721.91;5011144;28;20100;-77
2023/01/04 03:57:01;;;;;;;82.15;36.65;;;;;;;10.04;89.91;102702.34;5042754;28;20050;-76
2023/01/04 03:59:28;;;;;;;85.72;40.70;;;;;;;10.18;89.26;102714.88;5008442;28;20059;-79
2023/01/04 04:01:58;;;;;;;90.57;38.38;;;;;;;10.23;89.87;102728.75;5009363;28;20045;-75
2023/01/04 04:10:01;;;;;;;78.82;35.95;;;;;;;10.19;89.68;102717.44;5048527;28;20227;-77
2023/01/04 04:12:28;;;;;;;92.43;40.58;;;;;;;10.10;90.21;102691.41;5034689;28;20356;-75
2023/01/04 04:14:55;;;;;;;97.10;42.92;;;;;;;10.31;89.95;102713.28;5031108;28;20063;-77
2023/01/04 04:17:22;;;;;;;92.85;40.97;;;;;;;10.02;89.35;102661.75;5034156;28;20109;-78
2023/01/04 04:19:52;;;;;;;99.43;42.05;;;;;;;10.27;90.10;102704.63;5033193;28;20056;-78
2023/01/04 04:22:19;;;;;;;110.82;44.00;;;;;;;9.80;90.39;102623.09;5041628;28;20052;-77
2023/01/04 04:24:46;;;;;;;93.60;43.08;;;;;;;9.81;89.79;102621.34;5036665;28;20093;-77
2023/01/04 04:27:12;;;;;;;110.47;43.00;;;;;;;10.11;90.05;102673.69;5033966;28;20465;-78
2023/01/04 04:29:39;;;;;;;105.45;45.22;;;;;;;9.75;89.94;102611.03;5033833;28;20237;-79
2023/01/04 04:32:06;;;;;;;109.22;44.75;;;;;;;10.16;89.86;102684.91;5030926;28;20056;-78
2023/01/04 04:34:32;;;;;;;103.45;44.78;;;;;;;10.35;89.87;102714.00;5032344;28;20166;-79
2023/01/04 04:36:59;;;;;;;110.22;46.10;;;;;;;10.11;90.08;102676.34;5030791;28;20156;-79
2023/01/04 04:39:27;;;;;;;106.90;42.35;;;;;;;10.10;90.57;102679.91;5029927;28;20064;-77
2023/01/04 04:41:55;;;;;;;119.20;45.97;;;;;;;10.29;89.94;102704.56;5025193;28;20407;-79
2023/01/04 04:44:22;;;;;;;121.45;48.00;;;;;;;10.20;90.07;102684.66;5031492;28;20060;-77
2023/01/04 04:46:49;;;;;;;109.65;47.08;;;;;;;9.98;90.40;102653.13;5032951;28;20052;-78
2023/01/04 04:49:18;;;;;;;120.43;47.58;;;;;;;10.21;91.07;102694.31;5032911;28;20132;-78
2023/01/04 04:51:47;;;;;;;121.15;49.25;;;;;;;10.33;91.58;102719.38;5032997;28;20053;-78
2023/01/04 04:54:19;;;;;;;129.95;48.83;;;;;;;10.35;91.22;102722.81;5031796;28;20132;-78
2023/01/04 04:56:47;;;;;;;135.55;48.90;;;;;;;10.17;91.12;102691.91;5033802;28;20061;-79
2023/01/04 04:59:14;;;;;;;122.20;47.58;;;;;;;10.33;91.42;102719.38;5032285;28;20052;-77
2023/01/04 05:01:41;;;;;;;126.35;49.25;;;;;;;8.85;91.32;102476.19;5034697;28;20773;-79
2023/01/04 05:04:15;;;;;;;130.32;48.97;;;;;;;10.10;92.10;102666.66;5037553;28;20303;-78
2023/01/04 05:06:43;;;;;;;134.05;49.95;;;;;;;9.81;91.84;102626.63;5054839;28;20048;-77
2023/01/04 05:09:12;;;;;;;129.50;49.33;;;;;;;9.79;91.64;102625.84;5054203;28;20056;-77
2023/01/04 05:14:33;;;;;;;127.82;49.83;;;;;;;10.21;91.71;102693.47;5051019;28;20054;-77
2023/01/04 05:17:02;;;;;;;128.88;48.45;;;;;;;10.15;92.02;102681.41;5029937;28;20054;-77
2023/01/04 05:19:29;;;;;;;125.80;49.67;;;;;;;10.30;91.78;102708.94;5052989;28;20052;-77
2023/01/04 05:21:56;;;;;;;134.35;49.67;;;;;;;10.25;92.00;102701.19;5035032;28;20048;-76
2023/01/04 05:24:30;;;;;;;131.98;48.30;;;;;;;10.34;92.15;102717.59;5031239;28;20400;-77
2023/01/04 05:26:57;;;;;;;123.38;49.85;;;;;;;10.18;91.82;102688.34;5033721;28;20598;-78
2023/01/04 05:32:10;;;;;;;114.32;47.40;;;;;;;10.27;92.38;102703.78;5024093;28;20057;-76
2023/01/04 05:34:37;;;;;;;128.30;47.35;;;;;;;9.98;92.82;102644.31;5024955;28;20496;-77
2023/01/04 05:37:04;;;;;;;121.90;49.05;;;;;;;10.21;92.03;102681.06;5020332;28;20102;-77
2023/01/04 05:39:31;;;;;;;120.22;45.28;;;;;;;10.40;91.98;102714.59;5029655;28;20059;-76
2023/01/04 05:44:44;;;;;;;129.18;48.53;;;;;;;10.24;91.53;102696.84;5050867;28;20140;-76
2023/01/04 05:47:13;;;;;;;132.52;48.63;;;;;;;10.38;91.51;102733.28;5050438;28;20148;-77
2023/01/04 05:49:41;;;;;;;135.27;48.25;;;;;;;10.32;91.88;102723.00;5034043;28;20102;-76
2023/01/04 05:52:07;;;;;;;136.80;49.50;;;;;;;10.15;92.08;102704.44;5035964;28;20086;-78
2023/01/04 05:54:37;;;;;;;123.60;45.25;;;;;;;10.31;92.01;102723.91;5056824;28;20044;-78
2023/01/04 05:57:04;;;;;;;123.10;45.58;;;;;;;9.97;92.22;102663.81;5036564;28;20341;-77
2023/01/04 05:59:31;;;;;;;138.00;50.35;;;;;;;10.05;91.89;102689.00;5036987;28;20408;-77
2023/01/04 06:02:14;;;;;;;126.55;48.83;;;;;;;10.30;92.29;102734.63;5016428;28;20526;-76
2023/01/04 06:04:40;;;;;;;128.80;47.85;;;;;;;10.33;92.47;102739.78;5034436;28;20055;-77
2023/01/04 06:07:08;;;;;;;138.75;49.13;;;;;;;9.97;91.94;102683.22;5017047;28;20072;-78
2023/01/04 06:09:35;;;;;;;127.82;46.75;;;;;;;10.39;92.22;102744.75;5035277;28;20445;-78
2023/01/04 06:12:02;;;;;;;129.57;47.45;;;;;;;10.40;91.93;102749.97;5035192;28;20048;-77
2023/01/04 06:14:31;;;;;;;122.00;45.15;;;;;;;10.16;92.03;102711.44;5033370;28;20359;-78
2023/01/04 06:16:59;;;;;;;126.05;46.53;;;;;;;10.26;91.87;102737.41;5035512;28;20056;-77
2023/01/04 06:19:29;;;;;;;125.47;46.60;;;;;;;10.32;92.40;102744.22;5051876;28;20055;-78
2023/01/04 06:21:57;;;;;;;102.97;43.00;;;;;;;10.05;92.11;102691.66;5052190;28;20062;-77
2023/01/04 06:24:24;;;;;;;108.68;43.63;;;;;;;10.20;91.51;102700.59;5036728;28;20052;-78
2023/01/04 06:26:51;;;;;;;103.78;41.90;;;;;;;10.51;91.14;102733.47;5039240;28;20060;-77
2023/01/04 06:29:20;;;;;;;103.90;43.05;;;;;;;10.03;90.16;102648.41;5034748;28;20044;-77
2023/01/04 06:31:50;;;;;;;98.65;40.95;;;;;;;10.40;90.50;102714.59;5032453;28;20110;-78
2023/01/04 06:34:27;;;;;;;102.18;41.92;;;;;;;10.56;89.76;102751.78;5055104;28;20048;-77
2023/01/04 06:36:57;;;;;;;89.75;41.72;;;;;;;10.54;89.87;102753.69;5032670;28;20354;-75
2023/01/04 06:39:27;;;;;;;101.38;42.25;;;;;;;10.55;90.08;102760.72;5033081;28;20049;-75
2023/01/04 06:41:54;;;;;;;94.50;42.35;;;;;;;10.54;90.42;102754.56;5032493;28;20470;-78
2023/01/04 06:44:31;;;;;;;101.65;42.33;;;;;;;10.56;89.60;102762.41;5033718;28;20359;-78
2023/01/04 06:46:57;;;;;;;92.85;39.67;;;;;;;10.51;89.55;102756.50;5031874;28;20060;-77
2023/01/04 06:49:24;;;;;;;86.10;41.28;;;;;;;10.65;89.42;102757.44;5018334;28;20049;-76
2023/01/04 06:51:51;;;;;;;94.65;40.35;;;;;;;10.44;89.45;102746.22;5031939;28;20128;-78
2023/01/04 06:54:21;;;;;;;84.85;37.67;;;;;;;10.58;89.65;102766.72;5015839;28;20193;-76
2023/01/04 06:56:48;;;;;;;95.03;40.15;;;;;;;10.55;89.61;102771.34;5032817;28;20436;-76
2023/01/04 06:59:15;;;;;;;78.47;36.70;;;;;;;10.18;90.01;102704.28;5033168;28;20080;-76
2023/01/04 07:01:42;;;;;;;87.25;39.53;;;;;;;10.60;89.91;102766.63;5056872;28;20453;-78
2023/01/04 07:04:10;;;;;;;85.40;38.83;;;;;;;10.43;89.51;102733.88;5031948;28;20177;-78
2023/01/04 07:06:37;;;;;;;76.45;37.70;;;;;;;10.25;89.27;102706.50;5050782;28;20048;-77
2023/01/04 07:09:07;;;;;;;89.68;40.38;;;;;;;10.58;89.08;102755.22;5033146;28;20463;-78
2023/01/04 07:11:33;;;;;;;79.20;39.10;;;;;;;10.65;88.95;102761.91;5051930;28;20059;-78
2023/01/04 07:14:04;;;;;;;83.05;39.47;;;;;;;10.75;88.57;102773.75;5031307;28;20190;-78
2023/01/04 07:16:32;;;;;;;85.53;37.78;;;;;;;10.61;88.80;102761.25;5036233;28;20083;-77
2023/01/04 07:18:59;;;;;;;89.55;40.28;;;;;;;10.56;88.35;102751.78;5051047;28;20060;-77
2023/01/04 07:21:28;;;;;;;84.50;38.17;;;;;;;10.72;88.45;102779.25;5036125;28;20040;-76
2023/01/04 07:23:58;;;;;;;85.15;40.30;;;;;;;10.63;88.51;102769.09;5032824;28;20173;-77
2023/01/04 07:26:24;;;;;;;87.78;40.80;;;;;;;10.62;88.64;102767.41;5035841;28;20053;-76
2023/01/04 07:31:37;;;;;;;84.70;39.92;;;;;;;10.69;88.46;102780.25;5056271;28;20048;-76
2023/01/04 07:34:05;;;;;;;81.95;38.72;;;;;;;10.69;88.45;102774.09;5054038;28;20155;-76
2023/01/04 07:36:32;;;;;;;83.63;37.88;;;;;;;10.73;88.71;102788.94;5034367;28;20362;-77
2023/01/04 07:39:00;;;;;;;75.85;39.22;;;;;;;10.43;87.94;102733.88;5035221;28;20048;-77
2023/01/04 07:41:36;;;;;;;88.18;39.28;;;;;;;10.62;88.69;102768.25;5038525;28;20059;-78
2023/01/04 07:44:04;;;;;;;89.07;38.10;;;;;;;10.64;88.14;102776.16;5036278;28;20044;-77
2023/01/04 07:46:33;;;;;;;75.63;37.72;;;;;;;10.68;87.98;102789.19;5040468;28;20063;-77
2023/01/04 07:49:03;;;;;;;79.53;38.08;;;;;;;9.95;87.73;102655.06;5036143;28;20102;-76
2023/01/04 07:51:33;;;;;;;82.13;37.80;;;;;;;10.73;87.89;102799.56;5033681;28;20040;-76
2023/01/04 07:54:02;;;;;;;78.15;36.03;;;;;;;10.61;88.03;102786.97;5033353;28;20060;-77
2023/01/04 07:56:35;;;;;;;80.88;36.55;;;;;;;10.74;88.31;102803.94;5054705;28;20056;-76
2023/01/04 07:59:05;;;;;;;77.80;36.83;;;;;;;10.76;88.25;102804.69;5035960;28;20056;-77
2023/01/04 08:01:34;;;;;;;72.80;35.25;;;;;;;10.71;87.80;102792.63;5035328;28;20109;-78
2023/01/04 08:04:00;;;;;;;74.18;36.22;;;;;;;10.80;87.96;102798.28;5033587;28;20403;-78
2023/01/04 08:06:27;;;;;;;70.90;36.53;;;;;;;10.48;87.50;102738.94;5037676;28;20190;-79
2023/01/04 08:08:54;;;;;;;68.82;34.38;;;;;;;10.67;87.97;102770.66;5034577;28;20418;-79
2023/01/04 08:11:22;;;;;;;66.57;32.30;;;;;;;10.90;87.95;102790.66;5030946;28;20454;-78
2023/01/04 08:13:49;;;;;;;77.38;37.65;;;;;;;10.54;87.61;102717.38;5035845;28;20136;-77
2023/01/04 08:16:30;;;;;;;79.30;37.08;;;;;;;10.86;87.20;102782.00;5032084;28;20347;-78
2023/01/04 08:19:12;;;;;;;74.35;36.42;;;;;;;10.86;87.15;102786.47;5052050;28;20651;-77
2023/01/04 08:21:39;;;;;;;75.47;37.13;;;;;;;10.79;86.82;102769.13;5032369;28;20048;-77
2023/01/04 08:24:08;;;;;;;78.15;38.10;;;;;;;11.02;86.91;102818.34;5031297;28;20343;-77
2023/01/04 08:26:34;;;;;;;69.55;36.28;;;;;;;10.97;87.37;102801.78;5013902;28;20850;-78
2023/01/04 08:29:01;;;;;;;72.65;35.83;;;;;;;10.24;86.35;102672.06;5015448;28;20045;-79
2023/01/04 08:31:34;;;;;;;69.93;36.92;;;;;;;10.66;86.48;102750.38;5036260;28;20052;-77
2023/01/04 08:34:03;;;;;;;79.22;37.95;;;;;;;10.97;86.53;102805.34;5035266;28;20048;-78
2023/01/04 08:36:42;;;;;;;77.05;38.25;;;;;;;10.79;86.02;102759.38;5032590;28;20105;-78
2023/01/04 08:39:09;;;;;;;68.47;35.63;;;;;;;11.03;86.52;102801.47;5030073;28;20052;-78
2023/01/04 08:41:52;;;;;;;76.20;37.08;;;;;;;10.32;86.42;102691.13;5031285;28;20049;-78
2023/01/04 08:44:39;;;;;;;74.00;36.97;;;;;;;11.09;86.42;102814.41;5028246;28;20068;-77
2023/01/04 08:47:07;;;;;;;73.22;36.28;;;;;;;11.10;85.86;102816.97;5030460;28;20044;-79
2023/01/04 08:49:34;;;;;;;75.93;36.67;;;;;;;11.03;85.57;102812.09;5031053;28;20037;-78
2023/01/04 08:52:01;;;;;;;74.53;36.03;;;;;;;11.05;86.25;102810.22;5032223;28;20656;-79
2023/01/04 08:54:28;;;;;;;62.95;34.42;;;;;;;11.07;85.70;102813.66;5031196;28;20056;-78
2023/01/04 08:56:54;;;;;;;65.68;34.20;;;;;;;10.90;85.69;102794.19;5044728;28;20048;-78
2023/01/04 08:59:21;;;;;;;60.67;31.20;;;;;;;11.09;86.31;102814.41;5032974;28;20509;-77
2023/01/04 09:01:48;;;;;;;74.18;37.28;;;;;;;11.03;86.39;102788.19;5033226;28;20134;-78
2023/01/04 09:04:15;;;;;;;79.10;37.63;;;;;;;11.11;85.48;102791.25;5029488;28;20075;-77
2023/01/04 09:06:42;;;;;;;65.00;36.25;;;;;;;11.02;85.69;102797.06;5028006;28;20667;-77
2023/01/04 09:09:13;;;;;;;81.88;38.35;;;;;;;11.08;86.15;102802.06;5026769;28;20376;-78
2023/01/04 09:11:45;;;;;;;78.05;38.65;;;;;;;11.06;86.27;102809.25;5028395;28;20718;-78
2023/01/04 09:14:23;;;;;;;75.97;37.45;;;;;;;11.22;86.26;102831.38;5031034;28;20194;-78
2023/01/04 09:16:53;;;;;;;70.57;36.03;;;;;;;11.17;86.56;102817.50;5028289;28;20106;-77
2023/01/04 09:19:20;;;;;;;74.05;37.95;;;;;;;11.12;86.92;102815.09;5031778;28;20106;-78
2023/01/04 09:21:48;;;;;;;77.93;37.67;;;;;;;11.20;86.52;102822.63;5012797;28;20050;-77
2023/01/04 09:24:15;;;;;;;74.60;38.05;;;;;;;11.32;86.16;102823.75;5031141;28;20454;-76
2023/01/04 09:26:42;;;;;;;84.65;39.92;;;;;;;11.31;86.12;102814.91;5029427;28;20102;-77
2023/01/04 09:29:10;;;;;;;74.22;37.38;;;;;;;11.41;85.45;102820.56;5046196;28;20114;-78
2023/01/04 09:31:37;;;;;;;75.53;35.92;;;;;;;11.34;85.64;102809.41;5034531;28;20057;-76
2023/01/04 09:34:14;;;;;;;69.80;36.60;;;;;;;11.31;84.96;102809.59;5030470;28;20462;-78
2023/01/04 09:36:46;;;;;;;71.15;36.40;;;;;;;11.35;85.10;102807.63;5036101;28;20063;-76
2023/01/04 09:39:20;;;;;;;72.20;35.47;;;;;;;11.37;84.69;102823.50;5033386;28;20487;-77
2023/01/04 09:42:04;;;;;;;75.13;36.40;;;;;;;11.36;85.29;102816.44;5033042;28;20544;-79
2023/01/04 09:45:00;;;;;;;76.40;35.47;;;;;;;11.32;85.03;102811.31;5032208;28;20203;-78
2023/01/04 09:48:04;;;;;;;65.68;34.70;;;;;;;11.37;85.00;102810.19;5036271;28;20135;-78
2023/01/04 09:50:51;;;;;;;66.85;36.25;;;;;;;11.49;84.47;102823.63;5034791;28;20060;-77
2023/01/04 09:53:30;;;;;;;68.25;35.90;;;;;;;11.07;85.41;102764.00;5033931;28;20083;-78
2023/01/04 09:56:22;;;;;;;71.50;36.40;;;;;;;10.81;84.49;102714.97;5039201;28;20056;-77
2023/01/04 09:58:52;;;;;;;62.42;31.85;;;;;;;10.56;84.90;102680.97;5035894;28;20067;-74
2023/01/04 10:01:27;;;;;;;70.65;34.20;;;;;;;11.40;84.98;102802.03;5041845;28;20373;-77
2023/01/04 10:04:24;;;;;;;64.97;32.22;;;;;;;11.40;84.41;102807.34;5037137;28;20044;-79
2023/01/04 10:06:51;;;;;;;64.90;34.65;;;;;;;11.25;84.33;102793.97;5047001;28;20683;-76
2023/01/04 10:09:19;;;;;;;61.63;31.65;;;;;;;11.07;83.90;102748.06;5041687;28;20136;-77
2023/01/04 10:11:52;;;;;;;57.92;31.38;;;;;;;11.37;84.91;102803.06;5038324;28;20041;-78
2023/01/04 10:14:45;;;;;;;58.90;31.55;;;;;;;11.35;84.53;102781.03;5036028;28;20517;-76
2023/01/04 10:17:29;;;;;;;55.10;28.63;;;;;;;11.39;84.24;102793.22;5058464;28;20317;-77
2023/01/04 10:20:36;;;;;;;52.70;28.15;;;;;;;11.41;85.35;102798.41;5038992;28;20037;-78
2023/01/04 10:23:39;;;;;;;53.47;28.42;;;;;;;11.13;85.03;102730.88;5037586;28;20044;-77
2023/01/04 10:26:12;;;;;;;51.85;30.10;;;;;;;11.54;83.36;102778.16;5038797;28;20049;-78
2023/01/04 10:29:06;;;;;;;53.40;29.63;;;;;;;11.69;83.06;102785.22;5039668;28;20093;-76
2023/01/04 10:31:46;;;;;;;52.22;28.05;;;;;;;11.05;83.26;102667.53;5036414;28;20052;-78
2023/01/04 10:34:36;;;;;;;54.45;27.67;;;;;;;11.64;84.01;102771.34;5057257;28;20048;-77
2023/01/04 10:37:29;;;;;;;48.30;29.50;;;;;;;11.50;83.86;102747.34;5055495;28;20091;-78
2023/01/04 10:40:00;;;;;;;51.13;27.98;;;;;;;11.64;83.59;102766.03;5055557;28;20056;-77
2023/01/04 10:42:58;;;;;;;46.65;26.38;;;;;;;11.73;83.26;102772.63;5049418;28;20053;-77
2023/01/04 10:45:52;;;;;;;47.95;29.10;;;;;;;11.81;82.81;102769.50;5057069;28;20490;-76
2023/01/04 10:48:23;;;;;;;50.97;28.08;;;;;;;11.82;82.31;102773.84;5062425;28;20048;-77
2023/01/04 10:50:58;;;;;;;43.40;24.77;;;;;;;11.75;82.84;102771.56;5056791;28;20079;-77
2023/01/04 10:53:38;;;;;;;43.55;25.95;;;;;;;11.77;82.45;102764.38;5044731;28;20048;-77
2023/01/04 10:56:27;;;;;;;45.70;26.77;;;;;;;11.39;82.86;102693.97;5042901;28;20048;-77
2023/01/04 10:59:13;;;;;;;49.88;26.83;;;;;;;11.84;82.71;102758.66;5030545;28;20159;-79
2023/01/04 11:01:48;;;;;;;45.67;26.65;;;;;;;11.73;82.68;102740.69;5036255;28;20045;-76
2023/01/04 11:04:24;;;;;;;42.28;24.33;;;;;;;11.86;82.46;102741.66;5058431;28;20048;-77
2023/01/04 11:07:38;;;;;;;43.63;24.33;;;;;;;11.94;81.91;102738.53;5055452;28;20367;-76
2023/01/04 11:10:14;;;;;;;45.38;25.05;;;;;;;12.04;82.47;102745.03;5054491;28;20049;-75
2023/01/04 11:12:41;;;;;;;37.83;23.33;;;;;;;12.03;81.88;102745.97;5037879;28;20132;-76
2023/01/04 11:15:08;;;;;;;40.00;23.15;;;;;;;12.12;81.09;102726.78;5037038;28;20123;-78
2023/01/04 11:17:42;;;;;;;38.05;22.27;;;;;;;12.30;80.65;102742.56;5037746;28;20056;-76
2023/01/04 11:20:10;;;;;;;41.23;22.07;;;;;;;12.32;79.83;102733.53;5053768;28;20087;-77
2023/01/04 11:22:39;;;;;;;38.58;21.17;;;;;;;12.49;79.39;102732.47;5039926;28;20310;-76
2023/01/04 11:25:11;;;;;;;35.40;22.30;;;;;;;12.60;78.79;102727.31;5034827;28;20469;-76
2023/01/04 11:28:05;;;;;;;36.85;21.92;;;;;;;12.49;78.61;102740.47;5040784;28;20379;-77
2023/01/04 11:30:45;;;;;;;35.30;21.35;;;;;;;12.25;79.03;102715.38;5038824;28;20769;-76
2023/01/04 11:33:20;;;;;;;34.20;21.35;;;;;;;12.15;79.84;102699.13;5037969;28;20475;-78
2023/01/04 11:35:54;;;;;;;33.83;20.48;;;;;;;12.42;79.72;102723.16;5053244;28;20056;-79
2023/01/04 11:38:29;;;;;;;;;;;;;;;12.74;78.32;102721.13;5041277;28;20522;-78
2023/01/04 11:41:07;;;;;;;33.38;19.08;;;;;;;12.71;77.95;102712.44;5042051;28;19928;-79
2023/01/04 11:43:36;;;;;;;37.63;21.15;;;;;;;12.60;78.69;102715.81;5041271;28;20098;-76
2023/01/04 11:46:04;;;;;;;36.53;21.73;;;;;;;12.61;78.40;102713.03;5038172;28;20060;-76
2023/01/04 11:48:41;;;;;;;37.75;23.35;;;;;;;12.49;78.52;102708.50;5035788;28;20110;-77
2023/01/04 11:51:43;;;;;;;37.90;21.83;;;;;;;12.34;78.80;102688.16;5036238;28;20514;-76
2023/01/04 11:54:13;;;;;;;37.40;22.92;;;;;;;12.07;78.76;102638.38;5037941;28;20428;-77
2023/01/04 11:57:19;;;;;;;41.05;23.75;;;;;;;12.38;79.22;102689.69;5035474;28;20051;-76
2023/01/04 12:00:07;;;;;;;31.15;19.05;;;;;;;12.40;79.03;102695.75;4992726;28;20049;-77
2023/01/04 12:02:34;;;;;;;37.38;21.52;;;;;;;12.57;78.35;102684.03;5030784;28;20387;-78
2023/01/04 12:05:23;;;;;;;39.17;20.98;;;;;;;12.49;78.18;102655.22;5020329;28;20055;-78
2023/01/04 12:07:57;;;;;;;43.85;21.58;;;;;;;12.46;77.76;102665.22;5038789;28;20294;-78
2023/01/04 12:10:27;;;;;;;43.30;23.27;;;;;;;12.11;78.28;102629.25;5033996;28;20041;-78
2023/01/04 12:13:00;;;;;;;36.73;21.67;;;;;;;12.24;79.54;102660.41;5052337;28;20375;-77
2023/01/04 12:15:51;;;;;;;40.03;23.05;;;;;;;11.90;79.19;102595.97;5038211;28;20299;-77
2023/01/04 12:18:27;;;;;;;50.13;22.70;;;;;;;12.15;79.71;102656.50;5036507;28;20083;-78
2023/01/04 12:20:56;;;;;;;43.47;23.23;;;;;;;11.59;79.90;102562.41;5032676;28;20053;-78
2023/01/04 12:23:24;;;;;;;40.55;23.38;;;;;;;12.29;79.68;102663.63;5034148;28;20083;-78
2023/01/04 12:25:53;;;;;;;45.47;21.77;;;;;;;12.30;79.68;102649.34;5031978;28;20044;-78
2023/01/04 12:28:41;;;;;;;41.45;22.83;;;;;;;12.15;79.32;102646.72;5032970;28;20127;-78
2023/01/04 12:31:20;;;;;;;39.42;22.15;;;;;;;12.25;79.05;102646.97;5032219;28;20055;-79